Cruise inventory

RV Cirolana CIR7/90

Cruise summary report

Cruise Info. 
Ship name (ship code)RV Cirolana (74CZ)
Cruise identifierCIR7/90
Cruise period1990-07-06 — 1990-07-25
StatusCompleted
Port of departureLowestoft, United Kingdom
Port of returnLowestoft, United Kingdom
ObjectivesTo identify and quantify the fate or river-borne nutrients entering the Wash and the Humbers Estuary, examining nutrient distributions and critical processes from the river inputs through to the North Sea in intertidal and subtidal sediments and in the water column.
Chief scientistDennis S Woodhead (Ministry of Agriculture, Fisheries and Food Lowestoft Fisheries Laboratory)
ProjectJoint Nutrient Study (JONUS 2)
Coordinating bodyMAFF, UK
Cruise reportRV Cirolana CIR7/90 cruise report ci7_90.pdf — access key 'C' (0.16 MB) 
Ocean/sea areas 
GeneralNorth Sea
SpecificThe Wash, Humber and North Sea
Track chartsRV Cirolana CIR7/90 cruise track — trk3598.html
Measurements 
Physical oceanography 
CTD stationsQuantity: number of stations = 137
Other physical oceanographic measurementsQuantity: number of samples = 33
Description: Surface water samples
Chemical oceanography 
PhosphateQuantity: number of samples = 127
NitrateQuantity: number of samples = 129
NitriteQuantity: number of samples = 127
SilicateQuantity: number of samples = 137
Geology and geophysics 
GrabQuantity: number of samples = 3
Core - soft bottomQuantity: number of cores = 36
Description: box core sediment profiles collected for studies of processes affecting nutrient behaviour.
Data held at BODC 
Series/Profiles 
137  CTD/STD cast
Vertical spatial coordinates
Salinity of the water column
Temperature of the water column
Vertical spatial coordinates
Salinity of the water column
Temperature of the water column

BODC idDate/TimeLocationDoc.
3370461990-07-13 15:31 52° 59' 5" N  0° 12' 6" E  View metadata report for BODC series reference number 337046
3370581990-07-13 16:31 52° 59' 5" N  0° 12' 6" E  View metadata report for BODC series reference number 337058
3370711990-07-13 17:28 52° 59' 5" N  0° 12' 6" E  View metadata report for BODC series reference number 337071
3370831990-07-13 18:28 52° 59' 5" N  0° 12' 6" E  View metadata report for BODC series reference number 337083
3370951990-07-13 19:28 52° 59' 5" N  0° 12' 6" E  View metadata report for BODC series reference number 337095
3371021990-07-13 20:28 52° 59' 5" N  0° 12' 6" E  View metadata report for BODC series reference number 337102
3371141990-07-14 12:47 52° 55' 18" N  0° 15' 29" E  View metadata report for BODC series reference number 337114
3371261990-07-14 13:29 52° 55' 18" N  0° 15' 29" E  View metadata report for BODC series reference number 337126
3371381990-07-14 14:29 52° 55' 18" N  0° 15' 29" E  View metadata report for BODC series reference number 337138
3371511990-07-14 15:28 52° 55' 18" N  0° 15' 29" E  View metadata report for BODC series reference number 337151
3371631990-07-14 16:30 52° 55' 18" N  0° 15' 29" E  View metadata report for BODC series reference number 337163
3371751990-07-14 17:28 52° 55' 18" N  0° 15' 29" E  View metadata report for BODC series reference number 337175
3371871990-07-14 18:27 52° 55' 18" N  0° 15' 29" E  View metadata report for BODC series reference number 337187
3371991990-07-15 06:40 52° 55' 18" N  0° 15' 29" E  View metadata report for BODC series reference number 337199
3372061990-07-15 07:35 52° 55' 18" N  0° 15' 29" E  View metadata report for BODC series reference number 337206
3372181990-07-15 08:29 52° 55' 18" N  0° 15' 29" E  View metadata report for BODC series reference number 337218
3372311990-07-15 09:28 52° 55' 18" N  0° 15' 29" E  View metadata report for BODC series reference number 337231
3372431990-07-15 10:30 52° 55' 18" N  0° 15' 29" E  View metadata report for BODC series reference number 337243
3372551990-07-15 11:29 52° 55' 18" N  0° 15' 29" E  View metadata report for BODC series reference number 337255
3372671990-07-15 12:27 52° 55' 18" N  0° 15' 29" E  View metadata report for BODC series reference number 337267
3372791990-07-15 13:29 52° 55' 18" N  0° 15' 29" E  View metadata report for BODC series reference number 337279
3372801990-07-15 14:29 52° 55' 18" N  0° 15' 29" E  View metadata report for BODC series reference number 337280
3372921990-07-15 15:26 52° 55' 18" N  0° 15' 29" E  View metadata report for BODC series reference number 337292
3373111990-07-15 16:29 52° 55' 18" N  0° 15' 29" E  View metadata report for BODC series reference number 337311
3373231990-07-15 17:28 52° 55' 18" N  0° 15' 29" E  View metadata report for BODC series reference number 337323
3373351990-07-15 18:27 52° 55' 18" N  0° 15' 29" E  View metadata report for BODC series reference number 337335
3373471990-07-15 19:29 52° 55' 18" N  0° 15' 29" E  View metadata report for BODC series reference number 337347
3373591990-07-16 08:31 52° 56' 17" N  0° 23' 24" E  View metadata report for BODC series reference number 337359
3373601990-07-16 09:29 52° 56' 17" N  0° 23' 24" E  View metadata report for BODC series reference number 337360
3373721990-07-16 10:27 52° 56' 17" N  0° 23' 24" E  View metadata report for BODC series reference number 337372
3373841990-07-16 11:30 52° 56' 17" N  0° 23' 24" E  View metadata report for BODC series reference number 337384
3373961990-07-16 12:30 52° 56' 17" N  0° 23' 24" E  View metadata report for BODC series reference number 337396
3374031990-07-16 13:27 52° 56' 17" N  0° 23' 24" E  View metadata report for BODC series reference number 337403
3374151990-07-16 14:26 52° 56' 17" N  0° 23' 24" E  View metadata report for BODC series reference number 337415
3374271990-07-16 15:32 52° 56' 17" N  0° 23' 24" E  View metadata report for BODC series reference number 337427
3374391990-07-16 16:30 52° 56' 17" N  0° 23' 24" E  View metadata report for BODC series reference number 337439
3374401990-07-16 17:27 52° 56' 17" N  0° 23' 24" E  View metadata report for BODC series reference number 337440
3374521990-07-16 18:28 52° 56' 17" N  0° 23' 24" E  View metadata report for BODC series reference number 337452
3374641990-07-16 19:28 52° 56' 17" N  0° 23' 24" E  View metadata report for BODC series reference number 337464
3374761990-07-16 20:29 52° 56' 17" N  0° 23' 24" E  View metadata report for BODC series reference number 337476
3374881990-07-16 21:28 52° 56' 17" N  0° 23' 24" E  View metadata report for BODC series reference number 337488
3368911990-07-12 17:41 53° 2' 30" N  0° 25' 48" E  View metadata report for BODC series reference number 336891
3369091990-07-12 18:07 53° 3' 11" N  0° 24' 47" E  View metadata report for BODC series reference number 336909
3369101990-07-12 18:49 52° 56' 30" N  0° 23' 30" E  View metadata report for BODC series reference number 336910
3369221990-07-12 19:15 52° 56' 53" N  0° 21' 47" E  View metadata report for BODC series reference number 336922
3363681990-07-07 09:50 53° 33' 24" N  0° 6' 35" E  View metadata report for BODC series reference number 336368
3363811990-07-07 10:31 53° 33' 24" N  0° 6' 35" E  View metadata report for BODC series reference number 336381
3363931990-07-07 11:38 53° 33' 24" N  0° 6' 35" E  View metadata report for BODC series reference number 336393
3364001990-07-07 12:31 53° 33' 24" N  0° 6' 35" E  View metadata report for BODC series reference number 336400
3364121990-07-07 13:30 53° 33' 24" N  0° 6' 35" E  View metadata report for BODC series reference number 336412
3364241990-07-07 14:30 53° 33' 24" N  0° 6' 35" E  View metadata report for BODC series reference number 336424
3364361990-07-07 15:36 53° 33' 24" N  0° 6' 35" E  View metadata report for BODC series reference number 336436
3364481990-07-07 16:35 53° 33' 24" N  0° 6' 35" E  View metadata report for BODC series reference number 336448
3364611990-07-07 17:35 53° 33' 24" N  0° 6' 35" E  View metadata report for BODC series reference number 336461
3364731990-07-07 18:29 53° 33' 24" N  0° 6' 35" E  View metadata report for BODC series reference number 336473
3364851990-07-07 19:30 53° 33' 24" N  0° 6' 35" E  View metadata report for BODC series reference number 336485
3364971990-07-07 20:32 53° 33' 24" N  0° 6' 35" E  View metadata report for BODC series reference number 336497
3365041990-07-09 08:31 53° 40' 12" N  0° 13' 48" W  View metadata report for BODC series reference number 336504
3365161990-07-09 09:35 53° 40' 12" N  0° 13' 48" W  View metadata report for BODC series reference number 336516
3365281990-07-09 10:29 53° 40' 12" N  0° 13' 48" W  View metadata report for BODC series reference number 336528
3365411990-07-09 11:32 53° 40' 12" N  0° 13' 48" W  View metadata report for BODC series reference number 336541
3365531990-07-09 12:28 53° 40' 12" N  0° 13' 48" W  View metadata report for BODC series reference number 336553
3365651990-07-09 13:27 53° 40' 12" N  0° 13' 48" W  View metadata report for BODC series reference number 336565
3365771990-07-09 14:24 53° 40' 12" N  0° 13' 48" W  View metadata report for BODC series reference number 336577
3365891990-07-09 15:11 53° 40' 12" N  0° 13' 48" W  View metadata report for BODC series reference number 336589
3365901990-07-09 16:43 53° 40' 12" N  0° 13' 48" W  View metadata report for BODC series reference number 336590
3366081990-07-09 17:31 53° 40' 12" N  0° 13' 48" W  View metadata report for BODC series reference number 336608
3366211990-07-09 18:30 53° 40' 12" N  0° 13' 48" W  View metadata report for BODC series reference number 336621
3366331990-07-09 19:30 53° 40' 12" N  0° 13' 48" W  View metadata report for BODC series reference number 336633
3366451990-07-09 20:30 53° 40' 12" N  0° 13' 48" W  View metadata report for BODC series reference number 336645
3366571990-07-10 07:36 53° 40' 12" N  0° 13' 48" W  View metadata report for BODC series reference number 336657
3366691990-07-10 08:29 53° 40' 12" N  0° 13' 48" W  View metadata report for BODC series reference number 336669
3366701990-07-10 09:28 53° 40' 12" N  0° 13' 48" W  View metadata report for BODC series reference number 336670
3366821990-07-10 10:28 53° 40' 12" N  0° 13' 48" W  View metadata report for BODC series reference number 336682
3366941990-07-10 11:28 53° 40' 12" N  0° 13' 48" W  View metadata report for BODC series reference number 336694
3367011990-07-10 12:30 53° 40' 12" N  0° 13' 48" W  View metadata report for BODC series reference number 336701
3367131990-07-10 13:29 53° 40' 12" N  0° 13' 48" W  View metadata report for BODC series reference number 336713
3367251990-07-10 14:29 53° 40' 12" N  0° 13' 48" W  View metadata report for BODC series reference number 336725
3367371990-07-10 15:33 53° 40' 12" N  0° 13' 48" W  View metadata report for BODC series reference number 336737
3367491990-07-10 16:29 53° 40' 12" N  0° 13' 48" W  View metadata report for BODC series reference number 336749
3367501990-07-10 17:30 53° 40' 12" N  0° 13' 48" W  View metadata report for BODC series reference number 336750
3367621990-07-10 18:31 53° 40' 12" N  0° 13' 48" W  View metadata report for BODC series reference number 336762
3367741990-07-10 19:31 53° 40' 12" N  0° 13' 48" W  View metadata report for BODC series reference number 336774
3367861990-07-12 09:00 53° 32' 17" N  0° 13' 30" E  View metadata report for BODC series reference number 336786
3367981990-07-12 09:28 53° 33' 24" N  0° 16' 36" E  View metadata report for BODC series reference number 336798
3368051990-07-12 10:14 53° 35' 12" N  0° 19' 36" E  View metadata report for BODC series reference number 336805
3368171990-07-12 10:41 53° 36' 35" N  0° 22' 36" E  View metadata report for BODC series reference number 336817
3368291990-07-12 11:32 53° 34' 12" N  0° 24' 6" E  View metadata report for BODC series reference number 336829
3368301990-07-12 12:22 53° 30' 35" N  0° 17' 30" E  View metadata report for BODC series reference number 336830
3368421990-07-12 13:26 53° 27' 11" N  0° 30' 0" E  View metadata report for BODC series reference number 336842
3368541990-07-12 14:14 53° 26' 35" N  0° 21' 47" E  View metadata report for BODC series reference number 336854
3368661990-07-12 16:51 53° 1' 0" N  0° 28' 5" E  View metadata report for BODC series reference number 336866
3368781990-07-12 17:15 53° 1' 48" N  0° 27' 18" E  View metadata report for BODC series reference number 336878
3375441990-07-17 11:28 52° 56' 17" N  0° 23' 24" E  View metadata report for BODC series reference number 337544
3375561990-07-17 12:32 52° 56' 17" N  0° 23' 24" E  View metadata report for BODC series reference number 337556
3375681990-07-17 13:27 52° 56' 17" N  0° 23' 24" E  View metadata report for BODC series reference number 337568
3375811990-07-17 14:27 52° 56' 17" N  0° 23' 24" E  View metadata report for BODC series reference number 337581
3375931990-07-17 15:33 52° 56' 17" N  0° 23' 24" E  View metadata report for BODC series reference number 337593
3376001990-07-17 16:30 52° 56' 17" N  0° 23' 24" E  View metadata report for BODC series reference number 337600
3376121990-07-17 17:27 52° 56' 17" N  0° 23' 24" E  View metadata report for BODC series reference number 337612
3376241990-07-17 18:26 52° 56' 17" N  0° 23' 24" E  View metadata report for BODC series reference number 337624
3376361990-07-17 19:29 52° 56' 17" N  0° 23' 24" E  View metadata report for BODC series reference number 337636
3376481990-07-17 20:31 52° 56' 17" N  0° 23' 24" E  View metadata report for BODC series reference number 337648
3376611990-07-19 07:35 52° 55' 18" N  0° 15' 36" E  View metadata report for BODC series reference number 337661
3376731990-07-19 08:30 52° 55' 18" N  0° 15' 36" E  View metadata report for BODC series reference number 337673
3376851990-07-19 09:30 52° 55' 18" N  0° 15' 36" E  View metadata report for BODC series reference number 337685
3376971990-07-19 10:29 52° 55' 18" N  0° 15' 36" E  View metadata report for BODC series reference number 337697
3377041990-07-19 12:54 52° 55' 18" N  0° 15' 36" E  View metadata report for BODC series reference number 337704
3377161990-07-19 15:32 52° 55' 18" N  0° 15' 36" E  View metadata report for BODC series reference number 337716
3377281990-07-19 16:33 52° 55' 18" N  0° 15' 36" E  View metadata report for BODC series reference number 337728
3377411990-07-19 17:30 52° 55' 18" N  0° 15' 36" E  View metadata report for BODC series reference number 337741
3377531990-07-19 18:26 52° 55' 18" N  0° 15' 36" E  View metadata report for BODC series reference number 337753
3377651990-07-19 19:27 52° 55' 18" N  0° 15' 36" E  View metadata report for BODC series reference number 337765
3377771990-07-19 20:27 52° 55' 18" N  0° 15' 36" E  View metadata report for BODC series reference number 337777
3377891990-07-20 18:54 53° 3' 6" N  0° 24' 42" E  View metadata report for BODC series reference number 337789
3377901990-07-20 19:18 53° 2' 17" N  0° 25' 54" E  View metadata report for BODC series reference number 337790
3378081990-07-20 19:44 53° 1' 29" N  0° 27' 18" E  View metadata report for BODC series reference number 337808
3378211990-07-20 20:11 53° 0' 42" N  0° 28' 30" E  View metadata report for BODC series reference number 337821
3378331990-07-21 10:37 53° 9' 53" N  0° 36' 53" E  View metadata report for BODC series reference number 337833
3378451990-07-22 08:48 53° 32' 12" N  0° 40' 54" E  View metadata report for BODC series reference number 337845
3378571990-07-22 19:09 53° 13' 18" N  0° 36' 35" E  View metadata report for BODC series reference number 337857
3378691990-07-23 14:11 53° 7' 0" N  0° 27' 6" E  View metadata report for BODC series reference number 337869
3378701990-07-24 13:45 53° 4' 23" N  1° 1' 5" E  View metadata report for BODC series reference number 337870
3375071990-07-17 07:28 52° 56' 17" N  0° 23' 24" E  View metadata report for BODC series reference number 337507
3375191990-07-17 08:27 52° 56' 17" N  0° 23' 24" E  View metadata report for BODC series reference number 337519
3375201990-07-17 09:28 52° 56' 17" N  0° 23' 24" E  View metadata report for BODC series reference number 337520
3375321990-07-17 10:27 52° 56' 17" N  0° 23' 24" E  View metadata report for BODC series reference number 337532
3369341990-07-12 19:46 52° 57' 42" N  0° 19' 59" E  View metadata report for BODC series reference number 336934
3369461990-07-12 20:11 52° 58' 23" N  0° 18' 24" E  View metadata report for BODC series reference number 336946
3369581990-07-13 07:40 52° 59' 5" N  0° 12' 6" E  View metadata report for BODC series reference number 336958
3369711990-07-13 08:31 52° 59' 5" N  0° 12' 6" E  View metadata report for BODC series reference number 336971
3369831990-07-13 09:29 52° 59' 5" N  0° 12' 6" E  View metadata report for BODC series reference number 336983
3369951990-07-13 10:31 52° 59' 5" N  0° 12' 6" E  View metadata report for BODC series reference number 336995
3370091990-07-13 11:29 52° 59' 5" N  0° 12' 6" E  View metadata report for BODC series reference number 337009
3370101990-07-13 12:28 52° 59' 5" N  0° 12' 6" E  View metadata report for BODC series reference number 337010
3370221990-07-13 13:28 52° 59' 5" N  0° 12' 6" E  View metadata report for BODC series reference number 337022
3370341990-07-13 14:29 52° 59' 5" N  0° 12' 6" E  View metadata report for BODC series reference number 337034